Time;durP1;ratioP1;P1;durP2;ratioP2;P2;SDS_P1;SDS_P2;PMS_P1;PMS_P2;Temp;Humidity;BMP_temperature;BMP_pressure;BME280_temperature;BME280_humidity;BME280_pressure;Samples;Min_cycle;Max_cycle;Signal;HPM_P1;HPM_P2
2023/03/05 00:00:04;;;;;;;86.95;47.43;;;;;;;1.83;100.00;99030.39;1758999;81;21235;-89
2023/03/05 00:03:09;;;;;;;79.77;45.58;;;;;;;1.76;100.00;99026.63;1759274;80;21197;-88
2023/03/05 00:06:16;;;;;;;85.97;47.83;;;;;;;1.74;100.00;99029.48;1757964;82;21216;-90
2023/03/05 00:09:22;;;;;;;77.65;46.05;;;;;;;1.74;100.00;99024.56;1754682;80;21213;-80
2023/03/05 00:12:29;;;;;;;88.20;46.70;;;;;;;1.74;100.00;99014.66;1756164;80;21187;-89
2023/03/05 00:15:34;;;;;;;82.47;45.90;;;;;;;1.71;100.00;99008.20;1756079;82;21208;-80
2023/03/05 00:18:40;;;;;;;88.27;45.80;;;;;;;1.74;100.00;99017.35;1755078;80;21188;-88
2023/03/05 00:21:47;;;;;;;79.42;45.55;;;;;;;1.78;100.00;99013.83;1756048;81;21176;-79
2023/03/05 00:24:52;;;;;;;76.70;45.10;;;;;;;1.84;100.00;99017.79;1755804;82;21180;-88
2023/03/05 00:27:59;;;;;;;77.08;44.00;;;;;;;1.90;100.00;99023.41;1755854;80;21215;-89
2023/03/05 00:31:07;;;;;;;77.67;43.87;;;;;;;1.94;100.00;99021.27;1756398;82;21757;-90
2023/03/05 00:34:19;;;;;;;74.07;43.17;;;;;;;1.94;100.00;99026.16;1755258;80;21215;-79
2023/03/05 00:37:26;;;;;;;84.37;47.43;;;;;;;1.95;100.00;99042.67;1754929;80;21255;-89
2023/03/05 00:40:32;;;;;;;83.62;47.20;;;;;;;1.96;100.00;99041.67;1756002;82;21208;-84
2023/03/05 00:43:38;;;;;;;82.12;44.40;;;;;;;1.96;100.00;99042.17;1754809;80;21212;-78
2023/03/05 00:46:44;;;;;;;86.87;47.27;;;;;;;1.94;100.00;99042.84;1755934;82;21200;-78
2023/03/05 00:49:51;;;;;;;86.00;47.08;;;;;;;1.92;100.00;99044.82;1754818;81;21180;-79
2023/03/05 00:52:58;;;;;;;96.15;50.08;;;;;;;1.88;100.00;99035.33;1755797;80;21160;-80
2023/03/05 00:56:05;;;;;;;89.32;49.67;;;;;;;1.87;100.00;99035.84;1754992;82;21259;-89
2023/03/05 00:59:11;;;;;;;80.83;46.90;;;;;;;1.85;100.00;99030.27;1749059;80;21196;-80
2023/03/05 01:02:17;;;;;;;90.40;49.45;;;;;;;1.83;100.00;99030.90;1741278;81;21452;-89
2023/03/05 01:05:23;;;;;;;96.28;52.43;;;;;;;1.78;100.00;99033.55;1740001;82;21169;-79
2023/03/05 01:08:29;;;;;;;94.32;50.58;;;;;;;1.71;100.00;99028.42;1740437;81;21172;-89
2023/03/05 01:11:34;;;;;;;80.30;44.80;;;;;;;1.67;100.00;99024.33;1741510;82;21189;-87
2023/03/05 01:14:40;;;;;;;87.40;45.55;;;;;;;1.64;100.00;99027.82;1741516;82;21204;-89
2023/03/05 01:17:47;;;;;;;85.28;49.85;;;;;;;1.56;100.00;99021.86;1741538;81;21181;-79
2023/03/05 01:20:53;;;;;;;82.50;47.03;;;;;;;1.49;100.00;99012.16;1741330;82;21173;-84
2023/03/05 01:24:02;;;;;;;89.22;47.30;;;;;;;1.43;100.00;99018.66;1740703;81;21718;-88
2023/03/05 01:27:08;;;;;;;82.90;46.42;;;;;;;1.35;100.00;99014.50;1739916;81;21239;-80
2023/03/05 01:30:15;;;;;;;94.87;50.55;;;;;;;1.30;100.00;99026.23;1741429;82;21188;-79
2023/03/05 01:33:21;;;;;;;98.20;52.05;;;;;;;1.26;100.00;99026.52;1740854;81;21211;-80
2023/03/05 01:36:29;;;;;;;109.90;54.38;;;;;;;1.23;100.00;99034.91;1739893;82;21201;-78
2023/03/05 01:39:28;;;;;;;108.27;54.42;;;;;;;1.22;100.00;99045.34;1739918;81;21749;-79
2023/03/05 01:42:35;;;;;;;99.37;53.08;;;;;;;1.23;100.00;99043.50;1741176;81;21211;-89
2023/03/05 01:45:42;;;;;;;89.40;49.50;;;;;;;1.23;100.00;99047.03;1740748;82;21172;-82
2023/03/05 01:48:49;;;;;;;92.35;50.35;;;;;;;1.22;100.00;99056.13;1740129;81;21779;-89
2023/03/05 01:52:25;;;;;;;82.50;47.20;;;;;;;1.21;100.00;99053.05;1741147;82;21220;-88
2023/03/05 01:55:33;;;;;;;96.78;51.80;;;;;;;1.19;100.00;99057.75;1741051;82;21188;-90
2023/03/05 01:58:38;;;;;;;96.08;50.05;;;;;;;1.17;100.00;99066.45;1740648;81;21197;-78
2023/03/05 02:01:50;;;;;;;92.62;45.63;;;;;;;1.14;100.00;99064.58;1746541;82;21772;-78
2023/03/05 02:05:11;;;;;;;94.95;49.85;;;;;;;1.09;100.00;99068.21;1748231;82;21164;-79
2023/03/05 02:08:20;;;;;;;86.72;46.90;;;;;;;1.04;100.00;99070.50;1747653;81;21212;-80
2023/03/05 02:11:26;;;;;;;88.07;47.67;;;;;;;1.01;100.00;99075.66;1747984;82;21243;-88
2023/03/05 02:14:33;;;;;;;83.17;47.62;;;;;;;0.99;100.00;99081.70;1747425;81;21799;-84
2023/03/05 02:17:38;;;;;;;81.97;42.67;;;;;;;0.98;100.00;99098.33;1747887;81;21231;-79
2023/03/05 02:20:58;;;;;;;80.20;46.15;;;;;;;0.95;100.00;99105.38;1746820;82;21699;-78
2023/03/05 02:23:56;;;;;;;75.85;43.02;;;;;;;0.92;100.00;99107.50;1747061;81;21805;-90
2023/03/05 02:27:02;;;;;;;82.42;45.05;;;;;;;0.88;100.00;99104.73;1747280;82;21156;-90
2023/03/05 02:30:09;;;;;;;71.70;43.50;;;;;;;0.84;100.00;99107.36;1748077;81;21204;-90
2023/03/05 02:33:15;;;;;;;82.55;42.23;;;;;;;0.80;100.00;99112.67;1747664;81;21257;-91
2023/03/05 02:36:21;;;;;;;79.35;42.50;;;;;;;0.75;100.00;99118.02;1747098;82;21716;-90
2023/03/05 02:39:26;;;;;;;79.12;42.55;;;;;;;0.72;100.00;99118.79;1746603;81;21275;-89
2023/03/05 02:42:33;;;;;;;77.53;43.20;;;;;;;0.68;100.00;99128.98;1746756;81;21835;-79
2023/03/05 02:45:38;;;;;;;74.55;39.38;;;;;;;0.65;100.00;99131.95;1746801;81;21196;-89
2023/03/05 02:48:44;;;;;;;71.72;42.48;;;;;;;0.63;100.00;99135.79;1747186;81;21167;-91
2023/03/05 02:51:43;;;;;;;74.92;41.92;;;;;;;0.58;100.00;99135.36;1748112;82;21175;-79
2023/03/05 02:54:36;;;;;;;80.97;41.48;;;;;;;0.54;100.00;99136.14;1748577;82;21136;-84
2023/03/05 02:57:23;;;;;;;74.00;41.35;;;;;;;0.53;100.00;99126.38;1747163;81;21559;-80
2023/03/05 03:00:16;;;;;;;70.95;38.28;;;;;;;0.50;100.00;99127.98;1747681;81;21228;-89
2023/03/05 03:03:21;;;;;;;52.70;28.87;;;;;;;0.48;100.00;99127.29;1752961;80;21215;-91
2023/03/05 03:06:27;;;;;;;71.33;36.83;;;;;;;0.44;100.00;99136.13;1753120;81;21196;-91
2023/03/05 03:09:34;;;;;;;73.50;37.85;;;;;;;0.41;100.00;99133.71;1752187;81;21207;-90
2023/03/05 03:12:48;;;;;;;71.05;35.55;;;;;;;0.36;100.00;99133.28;1753096;80;21208;-79
2023/03/05 03:15:55;;;;;;;64.35;35.23;;;;;;;0.34;100.00;99132.59;1752160;82;21252;-89
2023/03/05 03:18:48;;;;;;;59.77;33.18;;;;;;;0.28;100.00;99140.34;1752504;80;21250;-80
2023/03/05 03:21:53;;;;;;;59.13;30.05;;;;;;;0.19;100.00;99132.15;1753604;82;21160;-91
2023/03/05 03:25:00;;;;;;;59.67;32.35;;;;;;;0.16;100.00;99139.63;1751916;81;21180;-90
2023/03/05 03:28:07;;;;;;;58.20;31.23;;;;;;;0.10;100.00;99137.02;1729824;82;21290;-91
2023/03/05 03:31:13;;;;;;;60.05;32.25;;;;;;;0.08;100.00;99140.31;1751893;82;21175;-90
2023/03/05 03:34:14;;;;;;;59.88;31.87;;;;;;;0.06;100.00;99146.34;1752292;80;21821;-90
2023/03/05 03:37:07;;;;;;;55.85;31.20;;;;;;;0.07;100.00;99152.06;1753031;80;21194;-91
2023/03/05 03:39:54;;;;;;;55.28;29.90;;;;;;;0.08;100.00;99151.07;1753538;82;21166;-90
2023/03/05 03:42:48;;;;;;;63.90;32.35;;;;;;;0.12;100.00;99156.53;1751918;80;21207;-89
2023/03/05 03:45:53;;;;;;;61.60;32.83;;;;;;;0.15;100.00;99147.36;1753349;82;21148;-79
2023/03/05 03:48:59;;;;;;;60.85;31.20;;;;;;;0.16;100.00;99153.93;1752063;80;21255;-90
2023/03/05 03:52:04;;;;;;;61.83;31.87;;;;;;;0.15;100.00;99156.27;1753399;81;21196;-79
2023/03/05 03:55:09;;;;;;;56.18;31.80;;;;;;;0.16;100.00;99164.69;1753600;82;21243;-79
2023/03/05 03:58:14;;;;;;;60.43;32.85;;;;;;;0.16;100.00;99165.19;1752324;80;21167;-83
2023/03/05 04:01:21;;;;;;;63.38;32.67;;;;;;;0.12;100.00;99164.60;1753506;82;21172;-79
2023/03/05 04:04:27;;;;;;;63.80;33.15;;;;;;;0.09;100.00;99167.55;1720508;83;21200;-90
2023/03/05 04:07:33;;;;;;;67.82;33.67;;;;;;;0.07;100.00;99174.92;1721569;82;21215;-89
2023/03/05 04:10:40;;;;;;;59.83;30.55;;;;;;;0.05;100.00;99172.88;1721875;83;21196;-90
2023/03/05 04:13:47;;;;;;;53.68;29.95;;;;;;;0.03;100.00;99178.02;1720873;83;21211;-89
2023/03/05 04:16:53;;;;;;;59.33;32.05;;;;;;;0.01;100.00;99175.48;1721906;83;21153;-90
2023/03/05 04:19:59;;;;;;;62.90;28.95;;;;;;;-0.01;100.00;99184.16;1722169;83;21261;-90
2023/03/05 04:23:05;;;;;;;61.25;31.27;;;;;;;-0.03;100.00;99184.80;1721353;83;21227;-78
2023/03/05 04:26:12;;;;;;;61.13;30.95;;;;;;;-0.06;100.00;99193.97;1722091;83;21800;-89
2023/03/05 04:29:18;;;;;;;67.08;31.73;;;;;;;-0.06;100.00;99197.16;1720882;83;21772;-89
2023/03/05 04:32:28;;;;;;;56.73;29.65;;;;;;;-0.07;100.00;99195.47;1722202;83;21223;-89
2023/03/05 04:35:24;;;;;;;62.30;30.97;;;;;;;-0.08;100.00;99200.49;1722160;83;21176;-79
2023/03/05 04:38:16;;;;;;;56.73;30.12;;;;;;;-0.09;100.00;99193.42;1721131;83;21196;-79
2023/03/05 04:41:16;;;;;;;55.75;29.70;;;;;;;-0.09;100.00;99198.80;1721989;83;21176;-89
2023/03/05 04:44:10;;;;;;;59.58;31.23;;;;;;;-0.10;100.00;99201.95;1720502;83;21678;-84
2023/03/05 04:47:16;;;;;;;57.90;30.73;;;;;;;-0.10;100.00;99194.38;1722314;83;21179;-79
2023/03/05 04:50:22;;;;;;;59.50;31.87;;;;;;;-0.05;100.00;99204.23;1720752;83;21227;-78
2023/03/05 04:53:28;;;;;;;56.53;27.50;;;;;;;-0.05;100.00;99205.11;1720565;82;21598;-89
2023/03/05 04:56:34;;;;;;;60.92;31.75;;;;;;;-0.02;99.92;99195.91;1720536;82;21180;-89
2023/03/05 04:59:39;;;;;;;56.70;28.40;;;;;;;0.03;99.76;99206.25;1720298;83;21204;-79
2023/03/05 05:02:45;;;;;;;53.73;28.32;;;;;;;0.05;99.56;99202.92;1722111;83;21244;-80
2023/03/05 05:05:50;;;;;;;57.03;29.60;;;;;;;0.08;99.35;99202.16;1758168;81;21172;-89
2023/03/05 05:08:56;;;;;;;63.05;29.77;;;;;;;0.15;99.34;99202.48;1756915;80;21227;-80
2023/03/05 05:12:01;;;;;;;56.13;27.40;;;;;;;0.23;99.17;99201.28;1758246;81;21244;-89
2023/03/05 05:15:05;;;;;;;55.83;29.18;;;;;;;0.30;98.70;99201.59;1758126;81;21191;-88
2023/03/05 05:18:11;;;;;;;56.80;29.45;;;;;;;0.33;98.53;99204.88;1758070;80;21206;-87
2023/03/05 05:21:19;;;;;;;59.88;29.87;;;;;;;0.41;98.41;99208.19;1757936;81;21168;-79
2023/03/05 05:24:25;;;;;;;57.75;28.42;;;;;;;0.47;98.24;99207.63;1758170;80;21219;-88
2023/03/05 05:27:31;;;;;;;52.13;26.68;;;;;;;0.54;97.99;99216.86;1758048;80;21191;-84
2023/03/05 05:30:36;;;;;;;57.50;28.67;;;;;;;0.60;97.74;99215.45;1757967;81;21171;-87
2023/03/05 05:33:41;;;;;;;59.42;30.40;;;;;;;0.68;97.57;99219.64;1757063;80;21191;-88
2023/03/05 05:36:48;;;;;;;65.40;29.82;;;;;;;0.75;97.30;99222.99;1758083;81;21721;-88
2023/03/05 05:39:54;;;;;;;52.93;28.00;;;;;;;0.86;97.07;99225.19;1756818;81;21796;-79
2023/03/05 05:43:00;;;;;;;57.35;28.57;;;;;;;0.93;96.68;99227.66;1757536;80;21195;-79
2023/03/05 05:46:12;;;;;;;50.35;25.90;;;;;;;0.99;96.33;99227.11;1757888;81;21179;-78
2023/03/05 05:49:18;;;;;;;50.85;26.57;;;;;;;1.08;96.09;99234.31;1758370;80;21207;-87
2023/03/05 05:52:23;;;;;;;54.88;27.67;;;;;;;1.15;95.62;99240.84;1758162;80;21164;-80
2023/03/05 05:55:29;;;;;;;53.48;27.27;;;;;;;1.23;95.25;99241.48;1758202;81;21167;-87
2023/03/05 05:58:35;;;;;;;52.73;27.30;;;;;;;1.32;94.87;99254.10;1756784;80;21199;-87
2023/03/05 06:01:41;;;;;;;56.98;28.05;;;;;;;1.38;94.40;99252.67;1758180;81;21168;-84
2023/03/05 06:04:47;;;;;;;53.98;27.27;;;;;;;1.47;93.96;99259.90;1753740;81;21751;-80
2023/03/05 06:07:55;;;;;;;56.08;29.27;;;;;;;1.54;93.56;99260.50;1746458;81;21176;-86
2023/03/05 06:11:02;;;;;;;54.80;25.68;;;;;;;1.62;93.15;99258.45;1746497;82;21183;-87
2023/03/05 06:14:08;;;;;;;56.83;29.65;;;;;;;1.73;92.88;99265.01;1747932;80;21789;-86
2023/03/05 06:17:15;;;;;;;51.40;24.95;;;;;;;1.81;92.42;99264.29;1746450;81;21796;-86
2023/03/05 06:20:22;;;;;;;49.40;26.40;;;;;;;1.88;92.03;99261.84;1746534;81;21172;-79
2023/03/05 06:23:28;;;;;;;52.23;26.60;;;;;;;1.96;91.61;99269.56;1747497;81;21236;-80
2023/03/05 06:26:34;;;;;;;47.23;24.07;;;;;;;2.05;91.16;99271.88;1746725;82;21192;-87
2023/03/05 06:29:42;;;;;;;51.30;25.95;;;;;;;2.12;90.28;99276.17;1747518;82;21172;-81
2023/03/05 06:32:48;;;;;;;44.50;24.95;;;;;;;2.21;89.55;99283.38;1747589;81;21184;-87
2023/03/05 06:35:53;;;;;;;40.48;23.32;;;;;;;2.27;88.78;99285.01;1747975;82;21187;-85
2023/03/05 06:39:02;;;;;;;43.00;23.35;;;;;;;2.37;87.89;99284.12;1747280;81;21216;-87
2023/03/05 06:42:08;;;;;;;38.42;20.88;;;;;;;2.42;86.85;99291.27;1747890;81;21172;-80
2023/03/05 06:45:16;;;;;;;40.65;19.40;;;;;;;2.48;85.79;99296.05;1747798;82;21192;-79
2023/03/05 06:48:21;;;;;;;32.83;18.62;;;;;;;2.53;84.37;99295.11;1746453;81;21748;-86
2023/03/05 06:51:30;;;;;;;37.50;18.52;;;;;;;2.56;82.66;99300.22;1746430;82;21721;-87
2023/03/05 06:54:36;;;;;;;38.20;19.90;;;;;;;2.55;79.77;99301.22;1748061;81;21714;-81
2023/03/05 06:57:44;;;;;;;39.45;19.12;;;;;;;2.54;79.07;99303.55;1748138;80;21207;-87
2023/03/05 07:00:51;;;;;;;41.50;20.17;;;;;;;2.51;78.22;99305.22;1747112;82;21189;-88
2023/03/05 07:03:59;;;;;;;35.23;17.80;;;;;;;2.51;77.34;99305.22;1746944;81;21203;-88
2023/03/05 07:07:04;;;;;;;35.55;18.67;;;;;;;2.55;77.08;99302.07;1720391;81;21201;-82
2023/03/05 07:10:12;;;;;;;33.65;17.73;;;;;;;2.58;76.55;99303.60;1716705;82;21783;-88
2023/03/05 07:13:18;;;;;;;37.23;19.40;;;;;;;2.59;76.39;99306.68;1716513;82;21779;-87
2023/03/05 07:16:28;;;;;;;39.42;18.98;;;;;;;2.58;75.81;99299.55;1717652;83;21208;-80
2023/03/05 07:19:34;;;;;;;30.85;16.95;;;;;;;2.58;75.37;99308.16;1716548;82;21660;-88
2023/03/05 07:22:40;;;;;;;29.80;17.55;;;;;;;2.55;74.20;99308.82;1716658;82;21706;-80
2023/03/05 07:25:47;;;;;;;32.30;16.30;;;;;;;2.56;73.39;99304.27;1716419;82;21188;-79
2023/03/05 07:28:54;;;;;;;37.55;17.23;;;;;;;2.60;73.38;99304.83;1716752;82;21188;-87
2023/03/05 07:32:01;;;;;;;32.80;16.45;;;;;;;2.64;72.86;99304.38;1717698;83;21726;-79
2023/03/05 07:35:06;;;;;;;34.00;18.45;;;;;;;2.64;72.10;99299.48;1717604;83;21744;-87
2023/03/05 07:38:12;;;;;;;34.60;17.35;;;;;;;2.60;72.92;99297.57;1703203;83;21563;-81
2023/03/05 07:41:22;;;;;;;32.78;17.35;;;;;;;2.64;73.94;99291.38;1716822;83;21780;-88
2023/03/05 07:44:28;;;;;;;32.80;17.75;;;;;;;2.71;73.32;99291.95;1716443;82;21231;-80
2023/03/05 07:47:34;;;;;;;33.92;17.92;;;;;;;2.76;73.09;99296.91;1717662;82;21244;-81
2023/03/05 07:50:39;;;;;;;33.53;16.85;;;;;;;2.80;72.19;99292.40;1717280;83;21277;-79
2023/03/05 07:53:45;;;;;;;31.77;17.62;;;;;;;2.85;72.09;99291.10;1716755;82;21247;-88
2023/03/05 07:56:52;;;;;;;31.93;17.60;;;;;;;2.85;72.10;99289.75;1716554;83;21777;-80
2023/03/05 07:59:57;;;;;;;32.17;17.77;;;;;;;2.91;72.19;99297.23;1717710;83;21726;-80
2023/03/05 08:03:03;;;;;;;27.80;16.10;;;;;;;2.99;71.92;99304.09;1717398;82;21185;-88
2023/03/05 08:06:13;;;;;;;33.15;15.43;;;;;;;3.10;71.28;99299.80;1719926;82;21181;-87
2023/03/05 08:09:29;;;;;;;28.20;17.05;;;;;;;3.24;71.56;99310.08;1746162;81;21228;-80
2023/03/05 08:12:35;;;;;;;29.82;17.50;;;;;;;3.38;70.55;99310.55;1744930;81;21208;-79
2023/03/05 08:15:43;;;;;;;31.93;16.82;;;;;;;3.39;69.81;99310.42;1725597;82;21160;-83
2023/03/05 08:18:49;;;;;;;29.48;15.88;;;;;;;3.31;69.97;99319.28;1745221;81;21195;-80
2023/03/05 08:21:54;;;;;;;31.25;16.12;;;;;;;3.29;70.03;99315.02;1746149;82;21196;-80
2023/03/05 08:24:59;;;;;;;28.40;14.55;;;;;;;3.28;70.26;99319.58;1746101;81;21192;-80
2023/03/05 08:28:05;;;;;;;29.25;14.78;;;;;;;3.26;68.50;99320.25;1746281;81;21211;-80
2023/03/05 08:31:17;;;;;;;28.83;15.75;;;;;;;3.25;68.46;99310.95;1745967;82;21762;-80
2023/03/05 08:34:22;;;;;;;27.10;15.38;;;;;;;3.31;69.03;99326.05;1744731;81;21188;-80
2023/03/05 08:37:27;;;;;;;33.63;17.17;;;;;;;3.41;68.33;99312.95;1746223;81;21208;-89
2023/03/05 08:40:34;;;;;;;31.42;16.52;;;;;;;3.41;68.79;99319.72;1745961;81;21187;-84
2023/03/05 08:43:40;;;;;;;30.70;16.40;;;;;;;3.35;67.26;99323.89;1745538;81;21566;-79
2023/03/05 08:46:49;;;;;;;29.60;15.50;;;;;;;3.32;67.38;99330.44;1745170;82;21176;-89
2023/03/05 08:49:56;;;;;;;27.37;14.58;;;;;;;3.38;66.47;99334.88;1745652;82;21776;-86
2023/03/05 08:53:02;;;;;;;31.68;15.90;;;;;;;3.38;64.90;99337.08;1746514;81;21207;-85
2023/03/05 08:56:08;;;;;;;26.57;13.22;;;;;;;3.46;63.94;99337.67;1748261;81;21208;-87
2023/03/05 08:59:14;;;;;;;22.95;13.68;;;;;;;3.47;62.99;99336.66;1746030;81;21180;-87
2023/03/05 09:02:21;;;;;;;24.72;13.53;;;;;;;3.41;62.32;99340.84;1744634;81;21260;-79
2023/03/05 09:05:20;;;;;;;23.02;12.80;;;;;;;3.35;61.46;99340.61;1746297;82;21173;-80
2023/03/05 09:08:27;;;;;;;19.90;11.53;;;;;;;3.27;61.56;99346.27;1744546;81;21749;-89
2023/03/05 09:11:34;;;;;;;19.77;10.13;;;;;;;3.33;60.72;99347.00;1745457;82;21792;-81
2023/03/05 09:14:40;;;;;;;20.05;10.10;;;;;;;3.49;61.02;99347.68;1746151;82;21180;-89
2023/03/05 09:17:47;;;;;;;15.83;8.98;;;;;;;3.75;60.74;99345.53;1746245;81;21188;-88
2023/03/05 09:20:52;;;;;;;14.47;8.30;;;;;;;3.97;60.00;99345.04;1746281;82;21176;-87
2023/03/05 09:23:59;;;;;;;14.55;8.30;;;;;;;4.13;60.51;99348.86;1744681;81;21231;-80
2023/03/05 09:27:06;;;;;;;15.60;7.58;;;;;;;4.23;58.34;99340.98;1744512;82;21180;-79
2023/03/05 09:30:13;;;;;;;16.27;7.25;;;;;;;4.27;56.67;99345.58;1745949;82;21177;-78
2023/03/05 09:33:19;;;;;;;11.03;5.67;;;;;;;4.16;56.09;99346.70;1744782;81;21191;-88
2023/03/05 09:36:22;;;;;;;10.23;5.42;;;;;;;4.09;55.67;99349.67;1745909;82;21184;-80
2023/03/05 09:39:28;;;;;;;7.92;4.80;;;;;;;3.96;54.29;99345.20;1744968;81;21792;-91
2023/03/05 09:42:56;;;;;;;10.20;4.22;;;;;;;3.74;54.11;99343.84;1745696;81;21187;-82
2023/03/05 09:46:18;;;;;;;6.50;3.60;;;;;;;3.54;54.20;99349.41;1746012;81;21180;-78
2023/03/05 09:50:02;;;;;;;7.55;4.30;;;;;;;3.45;54.53;99346.79;1744643;81;21756;-80
2023/03/05 09:53:28;;;;;;;9.23;3.75;;;;;;;3.57;53.58;99344.18;1745407;81;21216;-89
2023/03/05 09:57:00;;;;;;;6.05;2.95;;;;;;;3.75;51.79;99339.61;1746211;82;21212;-88
2023/03/05 10:00:13;;;;;;;7.80;3.12;;;;;;;3.90;50.39;99347.17;1744540;82;21152;-79
2023/03/05 10:03:29;;;;;;;8.33;3.62;;;;;;;4.01;50.09;99342.88;1745129;81;21227;-78
2023/03/05 10:06:40;;;;;;;6.10;3.00;;;;;;;4.07;48.14;99330.91;1746222;82;21227;-87
2023/03/05 10:09:59;;;;;;;6.40;2.52;;;;;;;4.09;48.60;99338.37;1744347;81;21713;-79
2023/03/05 10:13:07;;;;;;;5.10;2.50;;;;;;;4.06;48.82;99328.36;1745337;81;21223;-89
2023/03/05 10:16:38;;;;;;;5.05;2.58;;;;;;;3.92;47.98;99334.34;1746060;82;21229;-90
2023/03/05 10:20:17;;;;;;;5.37;2.67;;;;;;;3.79;49.66;99328.83;1745009;82;21169;-89
2023/03/05 10:23:55;;;;;;;6.42;2.85;;;;;;;3.79;48.92;99338.30;1745610;81;21212;-78
2023/03/05 10:27:14;;;;;;;6.62;3.15;;;;;;;3.79;46.69;99336.95;1746285;82;21128;-78
2023/03/05 10:30:53;;;;;;;5.12;2.92;;;;;;;3.77;47.65;99332.21;1746105;82;21180;-90
2023/03/05 10:34:35;;;;;;;7.45;3.77;;;;;;;3.78;48.10;99331.70;1744904;81;21239;-80
2023/03/05 10:38:02;;;;;;;9.28;3.95;;;;;;;3.77;48.02;99331.36;1729662;81;21212;-78
2023/03/05 10:41:11;;;;;;;4.28;2.72;;;;;;;3.75;47.94;99328.80;1766923;81;21121;-88
2023/03/05 10:44:39;;;;;;;6.77;3.17;;;;;;;3.81;48.81;99324.13;1787667;79;21189;-88
2023/03/05 10:47:58;;;;;;;5.00;2.90;;;;;;;3.78;48.57;99325.78;1788442;79;21224;-79
2023/03/05 10:51:27;;;;;;;6.75;3.58;;;;;;;3.79;48.61;99313.11;1789093;80;21202;-84
2023/03/05 10:54:29;;;;;;;7.65;3.83;;;;;;;3.87;48.26;99315.03;1766928;81;21170;-80
2023/03/05 10:57:39;;;;;;;7.25;4.22;;;;;;;3.90;48.27;99320.95;1766175;80;21230;-79
2023/03/05 11:00:45;;;;;;;9.88;3.40;;;;;;;3.81;49.09;99318.72;1766619;81;21170;-90
2023/03/05 11:04:09;;;;;;;7.15;4.25;;;;;;;3.69;47.92;99321.31;1765055;80;21795;-79
2023/03/05 11:07:29;;;;;;;8.53;4.22;;;;;;;3.65;49.07;99318.57;1766926;80;21715;-78
2023/03/05 11:10:33;;;;;;;7.92;4.72;;;;;;;3.77;49.88;99315.13;1764374;81;21183;-79
2023/03/05 11:13:40;;;;;;;7.17;3.62;;;;;;;3.95;49.22;99307.84;1765992;80;21230;-90
2023/03/05 11:16:56;;;;;;;4.78;3.05;;;;;;;4.06;48.38;99311.62;1766952;81;21197;-89
2023/03/05 11:20:05;;;;;;;4.33;2.37;;;;;;;4.15;47.11;99315.23;1766545;81;21143;-79
2023/03/05 11:23:22;;;;;;;3.92;2.00;;;;;;;4.20;46.77;99310.70;1774506;80;21223;-78
2023/03/05 11:26:31;;;;;;;2.52;1.60;;;;;;;4.16;46.63;99320.98;1784659;80;21203;-78
2023/03/05 11:29:38;;;;;;;2.55;1.50;;;;;;;4.07;46.13;99319.23;1785703;80;21177;-78
2023/03/05 11:32:44;;;;;;;4.70;1.52;;;;;;;4.00;45.40;99316.80;1785513;80;21752;-79
2023/03/05 11:35:50;;;;;;;7.47;1.75;;;;;;;3.97;44.47;99323.91;1785783;80;21175;-79
2023/03/05 11:39:16;;;;;;;3.08;1.85;;;;;;;3.91;43.33;99323.19;1773885;79;21194;-89
2023/03/05 11:42:27;;;;;;;2.90;1.25;;;;;;;3.89;44.48;99308.45;1771708;79;21692;-79
2023/03/05 11:45:35;;;;;;;5.58;1.35;;;;;;;3.90;44.97;99322.81;1770483;81;21886;-89
2023/03/05 11:48:45;;;;;;;2.83;1.40;;;;;;;3.93;45.18;99319.81;1769929;79;21775;-78
2023/03/05 11:52:12;;;;;;;1.85;0.98;;;;;;;3.94;44.90;99314.73;1770303;81;21222;-88
2023/03/05 11:55:24;;;;;;;1.67;1.20;;;;;;;3.98;44.24;99314.77;1753907;82;21227;-89
2023/03/05 11:58:51;;;;;;;2.02;1.02;;;;;;;3.99;45.41;99312.40;1754074;80;21231;-80
2023/03/05 12:02:01;;;;;;;1.82;0.90;;;;;;;3.98;43.96;99310.71;1755462;82;21176;-89
2023/03/05 12:05:04;;;;;;;;;;;;;;;3.92;44.32;99312.70;1756604;82;21836;-88
2023/03/05 12:08:04;;;;;;;1.55;1.00;;;;;;;3.92;44.27;99311.35;1761568;79;20191;-90
2023/03/05 12:11:25;;;;;;;2.02;1.00;;;;;;;3.92;44.58;99314.91;1767840;81;21261;-89
2023/03/05 12:14:34;;;;;;;2.10;1.00;;;;;;;3.92;45.12;99309.49;1763114;80;21179;-89
2023/03/05 12:17:57;;;;;;;2.35;0.78;;;;;;;3.92;44.15;99315.41;1761887;80;21309;-78
2023/03/05 12:21:36;;;;;;;2.05;0.90;;;;;;;3.88;43.60;99303.20;1762144;81;21182;-79
2023/03/05 12:24:42;;;;;;;2.67;1.05;;;;;;;3.89;43.43;99314.36;1761910;81;21195;-89
2023/03/05 12:27:49;;;;;;;2.92;1.60;;;;;;;3.84;42.91;99308.92;1762457;80;21194;-90
2023/03/05 12:30:59;;;;;;;2.05;0.93;;;;;;;3.87;44.72;99308.28;1762991;81;21203;-88
2023/03/05 12:34:05;;;;;;;1.27;0.88;;;;;;;3.89;43.76;99315.72;1761830;80;21237;-80
2023/03/05 12:37:22;;;;;;;1.72;1.20;;;;;;;3.88;43.18;99317.58;1761725;80;21742;-79
2023/03/05 12:40:35;;;;;;;1.85;0.98;;;;;;;3.85;44.98;99313.31;1763624;81;21160;-80
2023/03/05 12:43:41;;;;;;;3.45;0.90;;;;;;;3.88;44.09;99316.73;1763586;80;21732;-89
2023/03/05 12:47:24;;;;;;;2.25;1.47;;;;;;;3.86;43.96;99308.78;1763419;81;21783;-81
2023/03/05 12:50:41;;;;;;;1.90;1.00;;;;;;;3.83;44.02;99309.09;1762727;81;21202;-90
2023/03/05 12:53:48;;;;;;;1.37;0.70;;;;;;;3.83;44.45;99303.67;1762268;80;21183;-79
2023/03/05 12:56:54;;;;;;;1.92;1.12;;;;;;;3.84;44.33;99306.21;1762083;81;21210;-78
2023/03/05 13:00:14;;;;;;;2.25;0.90;;;;;;;3.84;44.59;99306.21;1763286;81;21171;-79
2023/03/05 13:03:27;;;;;;;1.05;0.70;;;;;;;3.84;44.05;99303.51;1762502;80;21230;-89
2023/03/05 13:06:42;;;;;;;2.95;0.88;;;;;;;3.87;44.50;99298.80;1763508;81;21159;-88
2023/03/05 13:09:48;;;;;;;2.62;1.30;;;;;;;3.88;44.41;99298.64;1806308;79;21725;-89
2023/03/05 13:12:58;;;;;;;3.52;2.52;;;;;;;3.91;45.40;99290.72;1748121;80;21682;-89
2023/03/05 13:16:03;;;;;;;5.65;1.65;;;;;;;3.90;45.90;99289.00;1802396;79;21133;-89
2023/03/05 13:19:08;;;;;;;2.77;1.02;;;;;;;3.90;45.22;99286.30;1806018;78;21199;-89
2023/03/05 13:22:17;;;;;;;2.25;1.40;;;;;;;3.87;45.59;99278.52;1807482;78;21184;-79
2023/03/05 13:25:23;;;;;;;1.67;0.93;;;;;;;3.87;44.95;99275.81;1808105;79;21245;-89
2023/03/05 13:28:31;;;;;;;3.42;1.05;;;;;;;3.87;44.53;99283.42;1807160;78;21240;-89
2023/03/05 13:31:37;;;;;;;2.10;0.90;;;;;;;3.84;44.21;99279.67;1806667;79;21153;-88
2023/03/05 13:34:46;;;;;;;2.10;1.27;;;;;;;3.82;44.25;99283.89;1806306;79;21477;-79
2023/03/05 13:37:51;;;;;;;2.42;1.10;;;;;;;3.79;44.14;99274.73;1807814;78;21180;-89
2023/03/05 13:41:25;;;;;;;2.08;1.00;;;;;;;3.78;43.97;99274.39;1807607;79;21233;-80
2023/03/05 13:44:31;;;;;;;5.03;1.20;;;;;;;3.77;43.61;99270.00;1807632;79;21164;-90
2023/03/05 13:47:39;;;;;;;2.45;1.20;;;;;;;3.74;43.36;99268.95;1809102;78;21187;-90
2023/03/05 13:50:47;;;;;;;3.10;1.70;;;;;;;3.70;43.92;99268.91;1809175;79;21142;-80
2023/03/05 13:53:53;;;;;;;2.72;1.77;;;;;;;3.68;44.58;99261.98;1808890;78;21238;-90
2023/03/05 13:57:11;;;;;;;4.87;1.70;;;;;;;3.72;45.25;99271.48;1787043;79;21172;-80
2023/03/05 14:00:41;;;;;;;3.60;1.72;;;;;;;3.73;44.86;99266.41;1799917;79;21176;-79
2023/03/05 14:03:48;;;;;;;3.58;1.82;;;;;;;3.72;44.94;99271.48;1807239;78;21867;-80
2023/03/05 14:07:16;;;;;;;3.37;1.45;;;;;;;3.71;45.26;99271.95;1807595;79;21192;-88
2023/03/05 14:10:42;;;;;;;3.30;1.30;;;;;;;3.69;45.46;99268.58;1808952;79;21145;-80
2023/03/05 14:13:48;;;;;;;2.15;1.40;;;;;;;3.65;44.58;99260.43;1805902;78;21734;-79
2023/03/05 14:16:54;;;;;;;6.25;1.60;;;;;;;3.63;44.66;99259.75;1807467;79;21724;-79
2023/03/05 14:20:09;;;;;;;2.95;1.32;;;;;;;3.61;44.90;99263.09;1808774;79;21164;-79
2023/03/05 14:23:06;;;;;;;3.17;1.75;;;;;;;3.58;44.81;99252.62;1808190;78;21164;-89
2023/03/05 14:25:54;;;;;;;2.72;1.65;;;;;;;3.56;44.44;99262.72;1808224;79;21215;-78
2023/03/05 14:28:46;;;;;;;2.90;1.40;;;;;;;3.53;44.55;99265.25;1806593;78;21212;-83
2023/03/05 14:31:35;;;;;;;2.45;1.10;;;;;;;3.50;44.89;99272.31;1808716;79;21164;-87
2023/03/05 14:34:47;;;;;;;2.30;1.25;;;;;;;3.49;45.61;99273.83;1808833;79;21227;-89
2023/03/05 14:37:55;;;;;;;2.37;1.32;;;;;;;3.44;45.19;99272.11;1808455;78;21220;-89